Time;durP1;ratioP1;P1;durP2;ratioP2;P2;SDS_P1;SDS_P2;PMS_P1;PMS_P2;Temp;Humidity;BMP_temperature;BMP_pressure;BME280_temperature;BME280_humidity;BME280_pressure;Samples;Min_cycle;Max_cycle;Signal;HPM_P1;HPM_P2
2022/03/04 00:00:05;;;;;;;;;;;;;;;4.46;46.81;101476.38;5028222;28;19921;-77
2022/03/04 00:02:30;;;;;;;;;;;;;;;4.64;46.89;101474.97;5026293;28;19929;-80
2022/03/04 00:04:55;;;;;;;;;;;;;;;4.62;47.25;101473.19;5023070;28;19921;-79
2022/03/04 00:07:20;;;;;;;;;;;;;;;4.53;47.69;101479.06;5024861;28;19925;-79
2022/03/04 00:09:46;;;;;;;;;;;;;;;4.76;47.48;101487.13;5019471;28;19925;-79
2022/03/04 00:12:12;;;;;;;;;;;;;;;4.75;47.14;101477.66;5032271;28;20378;-79
2022/03/04 00:14:38;;;;;;;;;;;;;;;4.47;47.60;101478.97;5023081;28;19922;-78
2022/03/04 00:17:03;;;;;;;;;;;;;;;4.90;47.97;101481.31;5030238;28;19929;-78
2022/03/04 00:19:29;;;;;;;;;;;;;;;4.69;47.98;101480.16;5031688;28;20007;-78
2022/03/04 00:21:54;;;;;;;;;;;;;;;4.86;47.24;101481.25;5025469;28;19932;-79
2022/03/04 00:24:20;;;;;;;;;;;;;;;5.00;47.42;101478.88;5023188;28;19925;-79
2022/03/04 00:26:46;;;;;;;;;;;;;;;4.78;47.30;101472.56;5024379;28;19983;-79
2022/03/04 00:29:12;;;;;;;;;;;;;;;4.96;47.84;101479.66;5026070;28;20341;-79
2022/03/04 00:31:38;;;;;;;;;;;;;;;4.40;47.55;101469.44;5040533;28;19979;-79
2022/03/04 00:34:06;;;;;;;;;;;;;;;4.62;47.44;101471.47;5027874;28;19921;-79
2022/03/04 00:36:35;;;;;;;;;;;;;;;4.73;47.43;101477.63;5031464;28;19925;-79
2022/03/04 00:39:02;;;;;;;;;;;;;;;4.73;48.01;101475.06;5023135;28;19924;-77
2022/03/04 00:41:27;;;;;;;;;;;;;;;4.87;46.92;101485.56;5024361;28;19925;-77
2022/03/04 00:43:53;;;;;;;;;;;;;;;4.79;47.96;101487.19;5044852;28;19931;-79
2022/03/04 00:46:18;;;;;;;;;;;;;;;4.34;48.77;101495.94;5023769;28;19935;-78
2022/03/04 00:48:44;;;;;;;;;;;;;;;4.47;47.43;101485.81;5022378;28;20472;-79
2022/03/04 00:51:10;;;;;;;;;;;;;;;4.31;48.35;101493.31;5025141;28;19932;-79
2022/03/04 00:53:36;;;;;;;;;;;;;;;4.67;48.18;101482.69;5045626;28;20028;-79
2022/03/04 00:56:01;;;;;;;;;;;;;;;4.23;48.45;101494.88;5026555;28;19992;-79
2022/03/04 00:58:27;;;;;;;;;;;;;;;4.60;48.47;101496.31;5032699;28;19929;-78
2022/03/04 01:00:52;;;;;;;;;;;;;;;4.86;48.10;101500.13;5026952;28;19921;-78
2022/03/04 01:03:17;;;;;;;;;;;;;;;4.96;46.54;101489.97;5022084;28;20373;-79
2022/03/04 01:05:43;;;;;;;;;;;;;;;4.83;46.57;101494.94;5040950;28;20004;-79
2022/03/04 01:08:08;;;;;;;;;;;;;;;4.51;47.51;101495.31;5021304;28;19925;-79
2022/03/04 01:10:34;;;;;;;;;;;;;;;4.57;47.66;101497.97;5026669;28;19924;-79
2022/03/04 01:12:59;;;;;;;;;;;;;;;4.34;47.31;101498.50;5025956;28;19921;-79
2022/03/04 01:15:25;;;;;;;;;;;;;;;4.60;46.49;101504.03;5023494;28;19932;-79
2022/03/04 01:17:50;;;;;;;;;;;;;;;4.61;46.77;101504.91;5024240;28;19984;-77
2022/03/04 01:20:15;;;;;;;;;;;;;;;4.53;46.31;101506.47;5024655;28;19947;-77
2022/03/04 01:22:41;;;;;;;;;;;;;;;4.60;47.69;101508.31;5020952;28;19999;-77
2022/03/04 01:25:07;;;;;;;;;;;;;;;4.67;47.22;101500.69;5027285;28;19967;-77
2022/03/04 01:27:32;;;;;;;;;;;;;;;4.51;46.32;101498.75;5028282;28;20047;-78
2022/03/04 01:29:57;;;;;;;;;;;;;;;4.40;47.53;101492.59;5020631;28;19944;-79
2022/03/04 01:32:22;;;;;;;;;;;;;;;4.66;47.48;101492.97;5021948;28;19926;-79
2022/03/04 01:34:48;;;;;;;;;;;;;;;4.28;47.69;101490.69;5024148;28;19917;-78
2022/03/04 01:37:13;;;;;;;;;;;;;;;4.35;47.45;101495.06;5024377;28;19914;-78
2022/03/04 01:39:38;;;;;;;;;;;;;;;4.46;47.31;101500.41;5044781;28;19925;-79
2022/03/04 01:42:04;;;;;;;;;;;;;;;4.79;46.96;101494.91;5030802;28;19955;-78
2022/03/04 01:44:29;;;;;;;;;;;;;;;4.63;47.10;101498.94;5028929;28;20455;-78
2022/03/04 01:46:55;;;;;;;;;;;;;;;4.57;46.42;101498.84;5026719;28;19944;-79
2022/03/04 01:49:20;;;;;;;;;;;;;;;4.45;47.25;101497.78;5028217;28;19922;-78
2022/03/04 01:51:45;;;;;;;;;;;;;;;4.39;47.39;101493.44;5028345;28;20018;-78
2022/03/04 01:54:11;;;;;;;;;;;;;;;4.47;47.08;101494.41;5025370;28;19991;-78
2022/03/04 01:56:36;;;;;;;;;;;;;;;4.44;47.04;101488.34;5028990;28;20008;-77
2022/03/04 01:59:02;;;;;;;;;;;;;;;4.33;46.62;101495.91;5030572;28;19924;-78
2022/03/04 02:01:27;;;;;;;;;;;;;;;4.01;48.08;101487.63;5028483;28;20474;-78
2022/03/04 02:03:52;;;;;;;;;;;;;;;4.41;47.02;101488.28;5027772;28;19997;-77
2022/03/04 02:06:18;;;;;;;;;;;;;;;4.49;46.39;101492.75;5027815;28;19964;-77
2022/03/04 02:08:43;;;;;;;;;;;;;;;4.56;46.90;101493.66;5020976;28;19971;-77
2022/03/04 02:11:08;;;;;;;;;;;;;;;4.52;46.56;101485.06;5043567;28;20593;-77
2022/03/04 02:13:35;;;;;;;;;;;;;;;4.42;45.79;101488.31;5047946;28;19921;-77
2022/03/04 02:16:00;;;;;;;;;;;;;;;4.19;47.19;101492.25;5029281;28;20566;-77
2022/03/04 02:18:25;;;;;;;;;;;;;;;3.80;47.69;101489.81;5037483;28;19917;-77
2022/03/04 02:20:52;;;;;;;;;;;;;;;4.18;47.71;101475.94;5025837;28;19925;-77
2022/03/04 02:23:17;;;;;;;;;;;;;;;4.27;46.43;101482.94;5035281;28;20012;-77
2022/03/04 02:25:45;;;;;;;;;;;;;;;3.79;47.88;101488.06;5028456;28;20004;-77
2022/03/04 02:28:11;;;;;;;;;;;;;;;3.95;47.42;101489.22;5025660;28;20035;-78
2022/03/04 02:30:36;;;;;;;;;;;;;;;3.93;47.81;101484.03;5012353;28;20039;-77
2022/03/04 02:33:03;;;;;;;;;;;;;;;3.95;48.01;101491.78;5025264;28;20408;-77
2022/03/04 02:35:30;;;;;;;;;;;;;;;4.00;47.21;101490.16;5027820;28;20004;-77
2022/03/04 02:37:55;;;;;;;;;;;;;;;4.16;45.79;101492.19;5035367;28;20405;-77
2022/03/04 02:40:20;;;;;;;;;;;;;;;3.99;47.27;101485.88;5025065;28;20041;-79
2022/03/04 02:42:46;;;;;;;;;;;;;;;4.05;48.06;101485.97;5024656;28;20007;-77
2022/03/04 02:45:12;;;;;;;;;;;;;;;4.01;47.25;101479.03;5025295;28;19926;-77
2022/03/04 02:47:37;;;;;;;;;;;;;;;3.97;48.15;101488.41;5021963;28;19961;-77
2022/03/04 02:50:02;;;;;;;;;;;;;;;4.25;46.76;101482.94;5042910;28;19925;-77
2022/03/04 02:52:28;;;;;;;;;;;;;;;4.18;46.09;101486.22;5030495;28;19957;-77
2022/03/04 02:54:53;;;;;;;;;;;;;;;4.19;47.52;101485.41;5028431;28;19925;-79
2022/03/04 02:57:18;;;;;;;;;;;;;;;4.19;46.66;101487.09;5042924;28;19929;-79
2022/03/04 02:59:43;;;;;;;;;;;;;;;3.95;48.01;101482.38;5027798;28;19918;-77
2022/03/04 03:02:09;;;;;;;;;;;;;;;3.98;47.61;101479.00;5032331;28;19925;-78
2022/03/04 03:04:34;;;;;;;;;;;;;;;4.02;47.44;101484.19;5027777;28;19917;-78
2022/03/04 03:06:59;;;;;;;;;;;;;;;4.10;47.20;101482.69;5027759;28;19929;-78
2022/03/04 03:09:28;;;;;;;;;;;;;;;4.11;47.17;101488.69;5044224;28;19917;-79
2022/03/04 03:11:53;;;;;;;;;;;;;;;4.33;46.72;101494.19;5024789;28;19979;-79
2022/03/04 03:14:18;;;;;;;;;;;;;;;4.03;46.80;101488.50;5022709;28;20472;-79
2022/03/04 03:16:44;;;;;;;;;;;;;;;3.84;48.17;101494.19;5023822;28;19921;-79
2022/03/04 03:19:09;;;;;;;;;;;;;;;3.89;47.55;101494.25;5029287;28;19929;-79
2022/03/04 03:21:34;;;;;;;;;;;;;;;4.12;47.13;101496.41;5024957;28;20294;-79
2022/03/04 03:24:00;;;;;;;;;;;;;;;4.11;46.59;101492.09;5025176;28;19957;-79
2022/03/04 03:26:25;;;;;;;;;;;;;;;4.08;46.82;101492.03;5027136;28;20526;-78
2022/03/04 03:28:50;;;;;;;;;;;;;;;4.01;47.24;101489.34;5027960;28;20066;-79
2022/03/04 03:31:16;;;;;;;;;;;;;;;3.91;47.25;101490.00;5028120;28;20766;-79
2022/03/04 03:33:43;;;;;;;;;;;;;;;3.78;48.23;101491.50;5029802;28;19924;-80
2022/03/04 03:36:09;;;;;;;;;;;;;;;3.84;47.87;101498.47;5023491;28;19978;-79
2022/03/04 03:38:34;;;;;;;;;;;;;;;4.23;46.81;101492.31;5030978;28;19924;-78
2022/03/04 03:40:59;;;;;;;;;;;;;;;3.97;47.44;101497.81;5026322;28;20344;-77
2022/03/04 03:43:24;;;;;;;;;;;;;;;4.12;48.18;101500.69;5023722;28;19959;-78
2022/03/04 03:45:50;;;;;;;;;;;;;;;4.28;47.04;101495.84;5039029;28;19929;-78
2022/03/04 03:48:15;;;;;;;;;;;;;;;4.06;48.00;101498.00;5024423;28;20365;-78
2022/03/04 03:50:41;;;;;;;;;;;;;;;4.04;47.30;101502.22;5024415;28;20300;-79
2022/03/04 03:53:08;;;;;;;;;;;;;;;3.97;47.65;101492.69;5029552;28;19952;-79
2022/03/04 03:55:33;;;;;;;;;;;;;;;3.94;48.22;101500.34;5023158;28;20299;-78
2022/03/04 03:57:59;;;;;;;;;;;;;;;3.97;47.96;101490.09;5021937;28;19936;-78
2022/03/04 04:00:24;;;;;;;;;;;;;;;4.06;46.49;101493.75;5042745;28;19921;-78
2022/03/04 04:02:50;;;;;;;;;;;;;;;3.58;48.50;101498.81;5023541;28;19929;-78
2022/03/04 04:05:15;;;;;;;;;;;;;;;3.49;48.84;101490.94;5025863;28;19925;-79
2022/03/04 04:07:41;;;;;;;;;;;;;;;3.39;48.95;101499.31;5022621;28;19918;-77
2022/03/04 04:10:07;;;;;;;;;;;;;;;3.53;48.54;101491.88;5026904;28;20500;-79
2022/03/04 04:12:32;;;;;;;;;;;;;;;3.93;48.47;101498.63;5026014;28;19987;-79
2022/03/04 04:14:57;;;;;;;;;;;;;;;3.89;47.70;101499.41;5024570;28;20015;-79
2022/03/04 04:17:23;;;;;;;;;;;;;;;3.79;48.51;101501.81;5020360;28;19925;-79
2022/03/04 04:19:48;;;;;;;;;;;;;;;3.61;48.16;101503.16;5024184;28;19963;-78
2022/03/04 04:22:14;;;;;;;;;;;;;;;3.35;48.43;101512.06;5039415;28;19990;-78
2022/03/04 04:24:39;;;;;;;;;;;;;;;3.83;48.06;101512.13;5024452;28;20435;-77
2022/03/04 04:27:04;;;;;;;;;;;;;;;3.90;47.43;101511.41;5026178;28;20465;-77
2022/03/04 04:29:30;;;;;;;;;;;;;;;3.74;47.91;101512.84;5025148;28;19929;-78
2022/03/04 04:31:57;;;;;;;;;;;;;;;3.73;48.72;101513.66;5026966;28;20478;-78
2022/03/04 04:34:22;;;;;;;;;;;;;;;3.78;48.14;101520.63;5026698;28;20255;-78
2022/03/04 04:36:47;;;;;;;;;;;;;;;3.55;47.30;101516.75;5040889;28;20298;-78
2022/03/04 04:39:13;;;;;;;;;;;;;;;3.63;47.92;101520.31;5027887;28;19975;-79
2022/03/04 04:41:39;;;;;;;;;;;;;;;3.55;48.10;101527.03;5024635;28;20004;-79
2022/03/04 04:44:04;;;;;;;;;;;;;;;3.94;48.42;101519.19;5030364;28;19929;-79
2022/03/04 04:46:29;;;;;;;;;;;;;;;4.05;48.19;101520.28;5026729;28;19939;-79
2022/03/04 04:48:55;;;;;;;;;;;;;;;4.01;48.11;101518.47;5027313;28;20378;-79
2022/03/04 04:51:20;;;;;;;;;;;;;;;4.15;47.45;101516.16;5025428;28;20368;-79
2022/03/04 04:53:45;;;;;;;;;;;;;;;4.19;47.76;101520.53;5023429;28;19931;-79
2022/03/04 04:56:11;;;;;;;;;;;;;;;4.26;47.26;101512.06;5021890;28;19975;-79
2022/03/04 04:58:36;;;;;;;;;;;;;;;4.25;47.28;101516.38;5032789;28;20012;-79
2022/03/04 05:01:01;;;;;;;;;;;;;;;4.31;46.96;101519.03;5023754;28;19968;-79
2022/03/04 05:03:27;;;;;;;;;;;;;;;4.18;46.45;101517.09;5030507;28;19925;-77
2022/03/04 05:05:53;;;;;;;;;;;;;;;4.25;46.64;101523.22;5029491;28;19936;-78
2022/03/04 05:08:18;;;;;;;;;;;;;;;4.26;45.98;101527.50;5028218;28;19920;-78
2022/03/04 05:10:44;;;;;;;;;;;;;;;3.72;47.04;101537.66;5025793;28;20016;-78
2022/03/04 05:13:09;;;;;;;;;;;;;;;3.47;48.07;101535.41;5027355;28;19948;-77
2022/03/04 05:15:35;;;;;;;;;;;;;;;3.72;46.92;101541.06;5032981;28;19971;-79
2022/03/04 05:18:00;;;;;;;;;;;;;;;3.35;48.06;101540.31;5041634;28;19929;-79
2022/03/04 05:20:25;;;;;;;;;;;;;;;3.28;48.13;101544.44;5042101;28;19975;-78
2022/03/04 05:22:51;;;;;;;;;;;;;;;3.83;47.55;101548.13;5034761;28;20339;-78
2022/03/04 05:25:16;;;;;;;;;;;;;;;3.84;47.97;101544.72;5027534;28;20421;-78
2022/03/04 05:27:41;;;;;;;;;;;;;;;4.01;47.80;101545.88;5027549;28;20447;-77
2022/03/04 05:30:07;;;;;;;;;;;;;;;3.75;47.43;101543.69;5030143;28;19925;-77
2022/03/04 05:32:32;;;;;;;;;;;;;;;3.92;47.95;101544.03;5032065;28;19925;-77
2022/03/04 05:34:58;;;;;;;;;;;;;;;3.73;47.02;101541.94;5040850;28;20018;-77
2022/03/04 05:37:23;;;;;;;;;;;;;;;3.38;48.07;101548.06;5029168;28;19917;-77
2022/03/04 05:39:48;;;;;;;;;;;;;;;3.33;48.79;101559.97;5029553;28;19960;-77
2022/03/04 05:42:14;;;;;;;;;;;;;;;3.61;47.98;101557.09;5025656;28;20055;-78
2022/03/04 05:44:39;;;;;;;;;;;;;;;3.21;49.23;101555.44;5028037;28;20043;-77
2022/03/04 05:47:05;;;;;;;;;;;;;;;3.31;49.07;101565.03;5029374;28;19928;-79
2022/03/04 05:49:30;;;;;;;;;;;;;;;3.39;48.13;101570.34;5030294;28;19921;-79
2022/03/04 05:51:55;;;;;;;;;;;;;;;2.99;49.51;101564.34;5044379;28;19990;-79
2022/03/04 05:54:21;;;;;;;;;;;;;;;3.33;48.84;101565.97;5042386;28;19925;-79
2022/03/04 05:56:46;;;;;;;;;;;;;;;3.27;49.33;101555.56;5022845;28;19925;-79
2022/03/04 05:59:11;;;;;;;;;;;;;;;3.36;48.69;101565.16;5027332;28;20016;-79
2022/03/04 06:01:37;;;;;;;;;;;;;;;3.18;49.27;101569.06;5023083;28;19931;-79
2022/03/04 06:04:02;;;;;;;;;;;;;;;3.52;48.60;101572.31;5028324;28;19939;-78
2022/03/04 06:06:28;;;;;;;;;;;;;;;3.24;48.52;101569.22;5026880;28;20382;-77
2022/03/04 06:08:53;;;;;;;;;;;;;;;3.03;49.59;101578.13;5027491;28;19968;-77
2022/03/04 06:11:19;;;;;;;;;;;;;;;3.30;49.50;101573.59;5032069;28;20395;-77
2022/03/04 06:13:45;;;;;;;;;;;;;;;3.10;48.88;101585.16;5027613;28;19925;-77
2022/03/04 06:16:10;;;;;;;;;;;;;;;3.00;49.84;101585.75;5044255;28;19925;-78
2022/03/04 06:18:35;;;;;;;;;;;;;;;2.81;49.86;101581.03;5028136;28;20452;-78
2022/03/04 06:21:01;;;;;;;;;;;;;;;2.88;49.98;101586.34;5028921;28;19925;-78
2022/03/04 06:23:26;;;;;;;;;;;;;;;2.85;50.01;101593.09;5021622;28;19936;-78
2022/03/04 06:25:52;;;;;;;;;;;;;;;2.91;49.94;101598.38;5030050;28;19925;-79
2022/03/04 06:28:17;;;;;;;;;;;;;;;3.32;49.58;101597.59;5032232;28;19925;-78
2022/03/04 06:30:42;;;;;;;;;;;;;;;3.31;50.29;101600.16;5027215;28;19935;-78
2022/03/04 06:35:53;;;;;;;;;;;;;;;3.27;48.93;101598.34;5026237;28;20083;-78
2022/03/04 06:38:18;;;;;;;;;;;;;;;3.10;49.65;101598.81;5027443;28;20004;-79
2022/03/04 06:40:45;;;;;;;;;;;;;;;3.10;49.23;101603.13;5026671;28;19925;-79
2022/03/04 06:43:11;;;;;;;;;;;;;;;3.46;49.28;101608.16;5027495;28;20290;-79
2022/03/04 06:45:38;;;;;;;;;;;;;;;3.23;49.39;101608.53;5024808;28;19940;-79
2022/03/04 06:48:03;;;;;;;;;;;;;;;3.20;49.92;101616.19;5022514;28;19939;-77
2022/03/04 06:50:29;;;;;;;;;;;;;;;3.30;50.21;101612.13;5029119;28;19929;-77
2022/03/04 06:52:54;;;;;;;;;;;;;;;2.99;49.77;101604.53;5023790;28;19921;-77
2022/03/04 06:55:19;;;;;;;;;;;;;;;3.01;50.61;101608.03;5028424;28;19930;-78
2022/03/04 06:57:46;;;;;;;;;;;;;;;3.41;49.44;101613.22;5024932;28;20404;-78
2022/03/04 07:00:12;;;;;;;;;;;;;;;3.18;50.26;101611.84;5026480;28;19925;-77
2022/03/04 07:02:38;;;;;;;;;;;;;;;3.26;50.41;101623.16;5021343;28;19933;-77
2022/03/04 07:05:07;;;;;;;;;;;;;;;3.56;50.06;101622.94;5021267;28;19932;-77
2022/03/04 07:07:32;;;;;;;;;;;;;;;3.76;48.60;101626.78;5024126;28;19924;-77
2022/03/04 07:09:57;;;;;;;;;;;;;;;3.59;49.26;101636.72;5026866;28;19921;-77
2022/03/04 07:12:23;;;;;;;;;;;;;;;3.29;49.02;101646.31;5017583;28;19932;-77
2022/03/04 07:14:49;;;;;;;;;;;;;;;3.46;50.00;101659.53;5027806;28;20309;-80
2022/03/04 07:17:14;;;;;;;;;;;;;;;3.58;49.14;101658.09;5040518;28;19921;-79
2022/03/04 07:19:40;;;;;;;;;;;;;;;3.68;49.26;101659.16;5024447;28;19939;-79
2022/03/04 07:22:06;;;;;;;;;;;;;;;3.70;49.82;101663.50;5026829;28;19974;-79
2022/03/04 07:24:31;;;;;;;;;;;;;;;3.93;49.61;101658.81;5027672;28;19921;-78
2022/03/04 07:26:58;;;;;;;;;;;;;;;4.17;48.76;101664.50;5038287;28;19928;-79
2022/03/04 07:29:23;;;;;;;;;;;;;;;4.07;48.17;101667.75;5043112;28;19921;-77
2022/03/04 07:31:50;;;;;;;;;;;;;;;4.16;47.62;101659.34;5024732;28;19929;-77
2022/03/04 07:34:15;;;;;;;;;;;;;;;4.23;48.27;101669.75;5034114;28;19921;-80
2022/03/04 07:36:40;;;;;;;;;;;;;;;4.23;48.02;101668.88;5029885;28;19922;-79
2022/03/04 07:39:06;;;;;;;;;;;;;;;4.35;48.34;101663.97;5038776;28;19975;-79
2022/03/04 07:41:31;;;;;;;;;;;;;;;4.26;48.00;101663.78;5024807;28;19921;-77
2022/03/04 07:43:59;;;;;;;;;;;;;;;4.41;48.21;101660.63;5024329;28;19917;-77
2022/03/04 07:46:24;;;;;;;;;;;;;;;4.37;48.31;101658.88;5028343;28;20003;-79
2022/03/04 07:48:49;;;;;;;;;;;;;;;4.35;48.12;101653.69;5024300;28;21435;-79
2022/03/04 07:51:15;;;;;;;;;;;;;;;4.43;48.60;101662.41;5024256;28;20033;-79
2022/03/04 07:53:40;;;;;;;;;;;;;;;4.28;48.37;101654.41;5037129;28;19978;-78
2022/03/04 07:56:05;;;;;;;;;;;;;;;4.46;48.83;101653.88;5028525;28;19957;-79
2022/03/04 07:58:30;;;;;;;;;;;;;;;4.53;47.65;101648.00;5028513;28;20071;-79
2022/03/04 08:00:56;;;;;;;;;;;;;;;4.34;48.73;101645.13;5025540;28;19929;-78
2022/03/04 08:03:21;;;;;;;;;;;;;;;4.37;48.75;101651.16;5027001;28;19921;-78
2022/03/04 08:05:46;;;;;;;;;;;;;;;4.50;49.15;101656.53;5043407;28;19924;-79
2022/03/04 08:08:12;;;;;;;;;;;;;;;4.31;49.57;101651.91;5026482;28;20313;-79
2022/03/04 08:10:37;;;;;;;;;;;;;;;4.49;48.38;101657.38;5026728;28;19932;-79
2022/03/04 08:13:03;;;;;;;;;;;;;;;4.57;48.77;101652.38;5025413;28;19956;-79
2022/03/04 08:15:28;;;;;;;;;;;;;;;4.52;48.53;101657.44;5015325;28;19922;-79
2022/03/04 08:17:53;;;;;;;;;;;;;;;4.38;49.34;101658.03;5007544;28;19980;-79
2022/03/04 08:20:21;;;;;;;;;;;;;;;4.68;49.30;101672.28;5019540;28;20394;-79
2022/03/04 08:22:46;;;;;;;;;;;;;;;4.81;48.44;101663.09;5007653;28;19926;-79
2022/03/04 08:25:12;;;;;;;;;;;;;;;4.79;47.93;101669.91;5009595;28;19927;-79
2022/03/04 08:27:38;;;;;;;;;;;;;;;4.99;48.46;101670.25;5009438;28;19925;-78
2022/03/04 08:30:07;;;;;;;;;;;;;;;4.93;48.00;101668.44;5011366;28;19971;-79
2022/03/04 08:32:32;;;;;;;;;;;;;;;4.86;48.31;101669.16;5011951;28;20014;-79
2022/03/04 08:35:00;;;;;;;;;;;;;;;5.02;48.71;101662.56;5010922;28;19969;-79
2022/03/04 08:37:26;;;;;;;;;;;;;;;4.91;48.06;101662.41;5007918;28;20013;-78
2022/03/04 08:39:51;;;;;;;;;;;;;;;4.99;47.92;101665.09;5010177;28;19925;-79
2022/03/04 08:42:16;;;;;;;;;;;;;;;5.04;48.45;101663.44;5017081;28;20393;-79
2022/03/04 08:44:42;;;;;;;;;;;;;;;4.95;49.72;101656.44;5021119;28;20022;-79
2022/03/04 08:47:07;;;;;;;;;;;;;;;4.99;49.08;101658.22;5004720;28;19948;-78
2022/03/04 08:49:33;;;;;;;;;;;;;;;5.21;48.78;101659.41;5005254;28;19928;-79
2022/03/04 08:51:59;;;;;;;;;;;;;;;5.07;48.19;101671.22;5005608;28;19932;-79
2022/03/04 08:54:24;;;;;;;;;;;;;;;5.19;47.70;101672.28;5007109;28;20599;-79
2022/03/04 08:56:50;;;;;;;;;;;;;;;5.11;47.16;101675.59;5008087;28;19926;-77
2022/03/04 08:59:15;;;;;;;;;;;;;;;5.16;47.59;101684.25;5020499;28;19932;-79
2022/03/04 09:01:40;;;;;;;;;;;;;;;5.03;47.34;101678.03;5010672;28;19921;-79
2022/03/04 09:04:06;;;;;;;;;;;;;;;5.30;47.01;101678.44;5019016;28;19975;-77
2022/03/04 09:06:31;;;;;;;;;;;;;;;5.36;46.58;101673.41;5005084;28;19921;-77
2022/03/04 09:08:56;;;;;;;;;;;;;;;5.33;45.85;101675.06;5000252;28;19925;-77
2022/03/04 09:11:22;;;;;;;;;;;;;;;5.48;46.70;101677.84;5007956;28;20332;-77
2022/03/04 09:13:48;;;;;;;;;;;;;;;5.46;47.01;101679.56;5003159;28;19999;-77
2022/03/04 09:16:13;;;;;;;;;;;;;;;5.30;47.21;101667.28;5005787;28;19920;-78
2022/03/04 09:18:38;;;;;;;;;;;;;;;5.46;46.93;101664.97;5002671;28;20235;-79
2022/03/04 09:21:03;;;;;;;;;;;;;;;5.41;47.54;101658.88;5003358;28;19931;-78
2022/03/04 09:23:29;;;;;;;;;;;;;;;5.50;47.21;101657.28;5000943;28;19976;-78
2022/03/04 09:25:54;;;;;;;;;;;;;;;5.45;47.96;101658.06;5002927;28;19922;-78
2022/03/04 09:28:19;;;;;;;;;;;;;;;5.51;47.12;101659.84;5022278;28;19929;-79
2022/03/04 09:30:45;;;;;;;;;;;;;;;5.60;47.07;101666.84;5024596;28;19964;-78
2022/03/04 09:33:11;;;;;;;;;;;;;;;5.44;47.23;101664.06;5011435;28;20604;-78
2022/03/04 09:35:36;;;;;;;;;;;;;;;5.63;46.53;101665.19;5005830;28;19921;-78
2022/03/04 09:38:02;;;;;;;;;;;;;;;5.69;47.40;101664.38;5004278;28;20020;-78
2022/03/04 09:40:27;;;;;;;;;;;;;;;5.80;47.32;101662.84;5002575;28;19930;-78
2022/03/04 09:42:53;;;;;;;;;;;;;;;5.61;47.97;101656.56;5008442;28;19929;-77
2022/03/04 09:45:19;;;;;;;;;;;;;;;5.67;46.84;101658.34;5001588;28;20323;-77
2022/03/04 09:47:45;;;;;;;;;;;;;;;5.79;47.39;101661.97;5003350;28;19932;-77
2022/03/04 09:50:10;;;;;;;;;;;;;;;5.94;45.88;101664.75;5008814;28;19934;-77
2022/03/04 09:52:36;;;;;;;;;;;;;;;5.76;46.13;101661.94;5003926;28;20512;-77
2022/03/04 09:55:01;;;;;;;;;;;;;;;5.82;45.97;101666.28;4998124;28;19926;-78
2022/03/04 09:57:27;;;;;;;;;;;;;;;5.91;45.48;101664.72;5005239;28;19984;-79
2022/03/04 09:59:52;;;;;;;;;;;;;;;5.84;46.03;101664.59;5024466;28;19917;-79
2022/03/04 10:02:18;;;;;;;;;;;;;;;5.88;45.67;101663.78;5002344;28;19983;-79
2022/03/04 10:04:44;;;;;;;;;;;;;;;5.99;46.56;101662.19;5007012;28;19922;-79
2022/03/04 10:07:11;;;;;;;;;;;;;;;6.00;45.89;101661.38;5005999;28;19940;-79
2022/03/04 10:09:44;;;;;;;;;;;;;;;5.99;46.37;101655.34;5015141;28;19932;-80
2022/03/04 10:12:10;;;;;;;;;;;;;;;6.04;46.44;101650.22;5007937;28;20314;-78
2022/03/04 10:14:55;;;;;;;;;;;;;;;5.98;46.64;101653.59;5003963;28;20012;-78
2022/03/04 10:17:20;;;;;;;;;;;;;;;5.87;47.21;101660.34;5005879;28;19956;-78
2022/03/04 10:19:50;;;;;;;;;;;;;;;6.00;45.38;101664.81;5006421;28;20012;-78
2022/03/04 10:22:16;;;;;;;;;;;;;;;6.19;44.92;101659.88;5006541;28;19928;-78
2022/03/04 10:24:41;;;;;;;;;;;;;;;6.17;46.90;101659.84;5007491;28;19926;-78
2022/03/04 10:27:12;;;;;;;;;;;;;;;6.20;46.49;101656.44;5006014;28;19998;-78
2022/03/04 10:29:39;;;;;;;;;;;;;;;6.27;46.14;101653.06;5005702;28;19928;-79
2022/03/04 10:32:11;;;;;;;;;;;;;;;6.36;45.81;101651.47;5006839;28;19933;-79
2022/03/04 10:34:47;;;;;;;;;;;;;;;6.26;46.38;101649.63;5009737;28;19921;-79
2022/03/04 10:37:13;;;;;;;;;;;;;;;6.32;45.97;101647.09;5008061;28;19970;-79
2022/03/04 10:40:07;;;;;;;;;;;;;;;6.32;45.37;101641.94;5007516;28;19922;-79
2022/03/04 10:42:39;;;;;;;;;;;;;;;6.43;45.88;101640.31;5005430;28;19925;-78
2022/03/04 10:45:06;;;;;;;;;;;;;;;6.63;44.19;101638.00;5015726;28;19933;-79
2022/03/04 10:47:51;;;;;;;;;;;;;;;6.52;44.80;101631.84;5010339;28;20381;-79
2022/03/04 10:50:18;;;;;;;;;;;;;;;6.58;43.82;101622.44;5010783;28;19929;-79
2022/03/04 10:52:51;;;;;;;;;;;;;;;6.51;43.52;101627.53;5010536;28;19929;-77
2022/03/04 10:55:26;;;;;;;;;;;;;;;6.54;44.67;101632.75;5006428;28;19928;-77
2022/03/04 10:57:52;;;;;;;;;;;;;;;6.73;43.83;101611.38;5025595;28;19933;-78
2022/03/04 11:00:25;;;;;;;;;;;;;;;6.81;44.55;101617.47;5006965;28;19981;-77
2022/03/04 11:02:51;;;;;;;;;;;;;;;6.76;43.58;101618.28;5012144;28;20237;-78
2022/03/04 11:05:16;;;;;;;;;;;;;;;6.93;42.58;101617.56;5011338;28;19929;-78
2022/03/04 11:07:43;;;;;;;;;;;;;;;6.91;43.29;101618.41;5017237;28;19932;-77
2022/03/04 11:10:08;;;;;;;;;;;;;;;6.82;44.40;101620.91;5005809;28;20590;-77
2022/03/04 11:12:34;;;;;;;;;;;;;;;6.87;44.13;101616.66;5009898;28;19974;-79
2022/03/04 11:15:00;;;;;;;;;;;;;;;6.89;44.97;101618.41;5010404;28;19925;-79
2022/03/04 11:17:26;;;;;;;;;;;;;;;6.96;44.43;101621.91;5006737;28;19925;-79
2022/03/04 11:19:52;;;;;;;;;;;;;;;6.91;45.06;101618.41;5009188;28;19933;-79
2022/03/04 11:22:18;;;;;;;;;;;;;;;6.85;45.57;101619.22;5011326;28;19926;-78
2022/03/04 11:24:44;;;;;;;;;;;;;;;6.88;44.98;101611.50;5000778;28;19925;-78
2022/03/04 11:27:10;;;;;;;;;;;;;;;6.84;44.12;101611.47;5006048;28;19929;-78
2022/03/04 11:29:36;;;;;;;;;;;;;;;6.85;44.09;101606.31;5001195;28;19933;-77
2022/03/04 11:32:03;;;;;;;;;;;;;;;6.98;42.92;101608.13;5003680;28;19929;-78
2022/03/04 11:34:35;;;;;;;;;;;;;;;6.92;45.85;101610.69;5008135;28;19952;-78
2022/03/04 11:37:03;;;;;;;;;;;;;;;6.93;45.27;101609.81;5009511;28;19949;-78
2022/03/04 11:39:29;;;;;;;;;;;;;;;6.89;43.55;101605.50;4995463;28;19930;-77
2022/03/04 11:41:54;;;;;;;;;;;;;;;6.86;44.86;101607.19;5003627;28;20290;-78
2022/03/04 11:44:23;;;;;;;;;;;;;;;6.98;42.99;101608.13;5013085;28;19930;-79
2022/03/04 11:46:55;;;;;;;;;;;;;;;7.06;44.06;101609.06;5007996;28;20008;-79
2022/03/04 11:49:32;;;;;;;;;;;;;;;7.05;45.09;101604.72;5006029;28;20638;-79
2022/03/04 11:52:19;;;;;;;;;;;;;;;6.90;45.85;101602.03;5005997;28;19925;-79
2022/03/04 11:55:04;;;;;;;;;;;;;;;6.95;44.20;101600.38;5003145;28;20017;-79
2022/03/04 11:57:30;;;;;;;;;;;;;;;7.08;44.44;101596.13;5007287;28;20480;-79
2022/03/04 11:59:56;;;;;;;;;;;;;;;7.00;45.56;101592.63;5002454;28;20040;-79
2022/03/04 12:02:42;;;;;;;;;;;;;;;7.08;45.39;101591.81;5009557;28;19929;-77
2022/03/04 12:05:13;;;;;;;;;;;;;;;7.17;44.21;101587.59;5024241;28;20306;-79
2022/03/04 12:07:47;;;;;;;;;;;;;;;7.19;43.44;101581.56;5003771;28;20296;-79
2022/03/04 12:10:16;;;;;;;;;;;;;;;7.13;44.85;101582.41;5006606;28;20716;-79
2022/03/04 12:13:01;;;;;;;;;;;;;;;7.24;44.00;101574.72;5007475;28;20289;-79
2022/03/04 12:15:36;;;;;;;;;;;;;;;7.17;44.55;101570.34;5006690;28;19928;-79
2022/03/04 12:18:07;;;;;;;;;;;;;;;7.17;45.52;101569.50;5006855;28;19935;-79
2022/03/04 12:20:38;;;;;;;;;;;;;;;7.09;43.83;101569.44;5024184;28;19928;-79
2022/03/04 12:23:08;;;;;;;;;;;;;;;7.15;42.55;101559.16;5008176;28;21559;-79
2022/03/04 12:25:51;;;;;;;;;;;;;;;7.37;42.77;101558.41;5002398;28;20028;-79
2022/03/04 12:28:19;;;;;;;;;;;;;;;7.30;42.88;101558.38;5002848;28;19986;-79
2022/03/04 12:30:45;;;;;;;;;;;;;;;7.34;43.44;101547.19;5002952;28;19937;-79
2022/03/04 12:33:12;;;;;;;;;;;;;;;7.33;43.19;101553.22;5002526;28;19975;-79
2022/03/04 12:35:37;;;;;;;;;;;;;;;7.27;43.68;101551.47;5005702;28;20879;-77
2022/03/04 12:38:02;;;;;;;;;;;;;;;7.34;41.91;101537.72;5005541;28;19921;-79
2022/03/04 12:40:28;;;;;;;;;;;;;;;7.47;43.10;101539.50;5007864;28;20644;-79
2022/03/04 12:42:55;;;;;;;;;;;;;;;7.65;41.71;101534.38;5005990;28;19926;-79
2022/03/04 12:45:20;;;;;;;;;;;;;;;7.63;41.15;101525.78;5005197;28;19930;-79